Terminal Aerodrome Forecast
Issued by NWS

Home | Current Version | Previous Version | Text Only | Print | Product List | Glossary On
Versions: 1 2 3 4 5 6 7 8 9 10 11 12 13 14
000
FTUS42 TJSJ 172338
TAFNCM
TAF
TNCM 172338Z 1800/1824 08008KT P6SM SCT020
     FM180600 07005KT P6SM VCSH SCT018 SCT035
     FM181450 11012KT P6SM SCT022=

USA.gov is the U.S. government's official web portal to all federal, state and local government web resources and services.